Washington, DC (20502)

1:05 AM EST on December 11, 2016 (GMT -0500)
The Washington Post | | Change Station

Elev 151 ft 38.90 °N, 77.03 °W | Updated 14 seconds ago

Mostly Cloudy
Mostly Cloudy
30.6 °F
Feels Like 26 °F
N
4.0
Wind Variable Wind from WSW
Gusts 8.0 mph

Today
High -- | Low -- °F
--% Chance of Precip.
Yesterday
High -- | Low -- °F
Precip. -- in
Pressure 30.53 in
Visibility 10.0 miles
Clouds Overcast 20000 ft
Windchill 26 °F
Dew Point 15 °F
Humidity 52%
Rainfall 0.00 in
Snow Depth Not available.
7:17 AM 4:46 PM
Waxing Gibbous, 89% visible
METAR KDCA 110552Z 34003KT 10SM OVC200 M01/M10 A3053 RMK AO2 SLP337 T10111100 10000 21033 50000 $
Pressure 30.53 in
Visibility 10.0 miles
Clouds Overcast 20000 ft
Windchill 26 °F
Dew Point 15 °F
Humidity 52%
Rainfall 0.00 in
Snow Depth Not available.
7:17 AM 4:46 PM
Waxing Gibbous, 89% visible
METAR KDCA 110552Z 34003KT 10SM OVC200 M01/M10 A3053 RMK AO2 SLP337 T10111100 10000 21033 50000 $

10-Day Weather Forecast

Almanac

Astronomy

Dec. 11, 2016 Rise Set
Actual Time
Civil Twilight
Nautical Twilight
Astronomical Twilight
Moon
Length of Visible Light
Length of Day
Tomorrow will be .
, % of the Moon is Illuminated

Today's Extremes

State Highs State Lows

Community

WunderPhotos

Upload Photos

1,956,706 photos uploaded!

WunderBlog® & News

Nearby

Air Quality

  Air Quality AQ Index Pollutant
Not available.

Snow Depth

Station Depth Elevation

Earthquake Activity

City Distance Mag. Time & Date
Minimum magnitude displayed is 2.5.

Coastal Water Temperatures

Place Temperature

Stations

Nearby Weather Stations

Station Location Temp. Windchill Dew Point Humidity Wind Precip. Elev Updated Type
                   

Watches & Warnings

There are currently no watches in effect.